sensor_id;sensor_type;location;lat;lon;timestamp;pressure;altitude;pressure_sealevel;temperature;humidity
21838;BME280;11081;45.946;6.140;2023-02-20T00:01:24;96259.63;;;7.76;81.70
21838;BME280;11081;45.946;6.140;2023-02-20T00:03:52;96265.84;;;7.67;81.75
21838;BME280;11081;45.946;6.140;2023-02-20T00:06:21;96269.44;;;7.66;81.74
21838;BME280;11081;45.946;6.140;2023-02-20T00:08:50;96275.34;;;7.60;81.73
21838;BME280;11081;45.946;6.140;2023-02-20T00:11:18;96268.59;;;7.51;81.93
21838;BME280;11081;45.946;6.140;2023-02-20T00:13:47;96270.25;;;7.44;82.20
21838;BME280;11081;45.946;6.140;2023-02-20T00:16:15;96274.19;;;7.40;82.30
21838;BME280;11081;45.946;6.140;2023-02-20T00:18:43;96271.28;;;7.34;82.15
21838;BME280;11081;45.946;6.140;2023-02-20T00:21:11;96270.59;;;7.41;81.70
21838;BME280;11081;45.946;6.140;2023-02-20T00:23:39;96274.78;;;7.50;82.02
21838;BME280;11081;45.946;6.140;2023-02-20T00:26:10;96274.06;;;7.56;81.13
21838;BME280;11081;45.946;6.140;2023-02-20T00:28:41;96270.31;;;7.36;81.95
21838;BME280;11081;45.946;6.140;2023-02-20T00:31:12;96265.56;;;7.16;82.54
21838;BME280;11081;45.946;6.140;2023-02-20T00:33:41;96272.75;;;7.06;82.39
21838;BME280;11081;45.946;6.140;2023-02-20T00:36:14;96269.16;;;7.07;82.46
21838;BME280;11081;45.946;6.140;2023-02-20T00:38:42;96267.81;;;7.19;81.51
21838;BME280;11081;45.946;6.140;2023-02-20T00:41:13;96268.72;;;7.26;81.24
21838;BME280;11081;45.946;6.140;2023-02-20T00:43:43;96274.41;;;7.30;80.99
21838;BME280;11081;45.946;6.140;2023-02-20T00:46:11;96263.22;;;7.29;81.21
21838;BME280;11081;45.946;6.140;2023-02-20T00:48:40;96261.56;;;7.28;81.61
21838;BME280;11081;45.946;6.140;2023-02-20T00:51:27;96265.50;;;7.24;82.12
21838;BME280;11081;45.946;6.140;2023-02-20T00:53:55;96259.97;;;7.27;81.79
21838;BME280;11081;45.946;6.140;2023-02-20T00:56:26;96253.16;;;7.26;82.17
21838;BME280;11081;45.946;6.140;2023-02-20T00:58:55;96246.50;;;7.32;82.41
21838;BME280;11081;45.946;6.140;2023-02-20T01:01:24;96246.59;;;7.39;82.61
21838;BME280;11081;45.946;6.140;2023-02-20T01:03:53;96247.22;;;7.41;82.26
21838;BME280;11081;45.946;6.140;2023-02-20T01:06:21;96241.06;;;7.42;82.01
21838;BME280;11081;45.946;6.140;2023-02-20T01:08:49;96241.41;;;7.39;82.51
21838;BME280;11081;45.946;6.140;2023-02-20T01:11:19;96233.34;;;7.33;83.00
21838;BME280;11081;45.946;6.140;2023-02-20T01:13:49;96238.69;;;7.32;82.82
21838;BME280;11081;45.946;6.140;2023-02-20T01:16:17;96235.28;;;7.31;83.06
21838;BME280;11081;45.946;6.140;2023-02-20T01:18:48;96230.78;;;7.25;83.69
21838;BME280;11081;45.946;6.140;2023-02-20T01:21:17;96231.09;;;7.30;83.50
21838;BME280;11081;45.946;6.140;2023-02-20T01:23:45;96234.59;;;7.38;83.18
21838;BME280;11081;45.946;6.140;2023-02-20T01:26:13;96238.19;;;7.37;83.42
21838;BME280;11081;45.946;6.140;2023-02-20T01:28:43;96232.97;;;7.37;82.95
21838;BME280;11081;45.946;6.140;2023-02-20T01:31:13;96231.72;;;7.32;83.29
21838;BME280;11081;45.946;6.140;2023-02-20T01:33:42;96229.47;;;7.29;83.49
21838;BME280;11081;45.946;6.140;2023-02-20T01:36:10;96232.38;;;7.26;83.10
21838;BME280;11081;45.946;6.140;2023-02-20T01:38:40;96232.72;;;7.23;83.25
21838;BME280;11081;45.946;6.140;2023-02-20T01:41:09;96225.22;;;7.28;83.54
21838;BME280;11081;45.946;6.140;2023-02-20T01:43:37;96229.97;;;7.25;84.09
21838;BME280;11081;45.946;6.140;2023-02-20T01:49:11;96219.13;;;7.21;84.44
21838;BME280;11081;45.946;6.140;2023-02-20T01:51:43;96216.34;;;7.23;84.23
21838;BME280;11081;45.946;6.140;2023-02-20T01:54:17;96222.34;;;7.23;84.47
21838;BME280;11081;45.946;6.140;2023-02-20T01:56:49;96227.19;;;7.26;84.17
21838;BME280;11081;45.946;6.140;2023-02-20T01:59:19;96222.25;;;7.40;83.83
21838;BME280;11081;45.946;6.140;2023-02-20T02:01:49;96225.81;;;7.39;83.46
21838;BME280;11081;45.946;6.140;2023-02-20T02:04:19;96222.25;;;7.40;83.28
21838;BME280;11081;45.946;6.140;2023-02-20T02:06:49;96220.63;;;7.39;83.73
21838;BME280;11081;45.946;6.140;2023-02-20T02:09:25;96218.31;;;7.44;83.64
21838;BME280;11081;45.946;6.140;2023-02-20T02:11:54;96210.47;;;7.52;83.33
21838;BME280;11081;45.946;6.140;2023-02-20T02:14:22;96215.31;;;7.55;83.50
21838;BME280;11081;45.946;6.140;2023-02-20T02:17:01;96215.19;;;7.71;82.72
21838;BME280;11081;45.946;6.140;2023-02-20T02:19:52;96209.50;;;7.68;83.11
21838;BME280;11081;45.946;6.140;2023-02-20T02:22:46;96212.50;;;7.79;82.43
21838;BME280;11081;45.946;6.140;2023-02-20T02:25:30;96208.91;;;7.80;82.18
21838;BME280;11081;45.946;6.140;2023-02-20T02:34:39;96217.56;;;6.50;80.26
21838;BME280;11081;45.946;6.140;2023-02-20T02:37:18;96215.50;;;6.37;82.43
21838;BME280;11081;45.946;6.140;2023-02-20T02:39:55;96208.88;;;6.35;81.85
21838;BME280;11081;45.946;6.140;2023-02-20T02:42:35;96206.50;;;6.25;82.87
21838;BME280;11081;45.946;6.140;2023-02-20T02:45:11;96212.22;;;5.96;84.53
21838;BME280;11081;45.946;6.140;2023-02-20T02:47:48;96202.50;;;6.06;83.54
21838;BME280;11081;45.946;6.140;2023-02-20T02:50:20;96199.06;;;6.14;83.44
21838;BME280;11081;45.946;6.140;2023-02-20T02:52:51;96205.69;;;6.17;82.83
21838;BME280;11081;45.946;6.140;2023-02-20T02:55:23;96214.41;;;6.32;81.22
21838;BME280;11081;45.946;6.140;2023-02-20T02:57:52;96214.66;;;6.45;81.72
21838;BME280;11081;45.946;6.140;2023-02-20T03:00:25;96207.25;;;6.34;81.93
21838;BME280;11081;45.946;6.140;2023-02-20T03:02:57;96211.25;;;6.45;81.28
21838;BME280;11081;45.946;6.140;2023-02-20T03:05:30;96218.25;;;6.36;81.11
21838;BME280;11081;45.946;6.140;2023-02-20T03:08:12;96214.09;;;6.27;81.18
21838;BME280;11081;45.946;6.140;2023-02-20T03:10:49;96211.25;;;6.05;82.43
21838;BME280;11081;45.946;6.140;2023-02-20T03:13:24;96208.31;;;6.00;84.15
21838;BME280;11081;45.946;6.140;2023-02-20T03:16:11;96211.25;;;5.97;84.89
21838;BME280;11081;45.946;6.140;2023-02-20T03:18:41;96212.19;;;6.13;83.99
21838;BME280;11081;45.946;6.140;2023-02-20T03:21:12;96208.28;;;6.25;82.58
21838;BME280;11081;45.946;6.140;2023-02-20T03:23:47;96212.16;;;6.29;82.27
21838;BME280;11081;45.946;6.140;2023-02-20T03:26:19;96214.56;;;6.30;81.80
21838;BME280;11081;45.946;6.140;2023-02-20T03:28:54;96206.63;;;6.32;82.36
21838;BME280;11081;45.946;6.140;2023-02-20T03:31:28;96196.25;;;6.32;82.19
21838;BME280;11081;45.946;6.140;2023-02-20T03:34:02;96209.38;;;6.30;82.22
21838;BME280;11081;45.946;6.140;2023-02-20T03:36:56;96203.06;;;6.33;82.72
21838;BME280;11081;45.946;6.140;2023-02-20T03:39:49;96205.47;;;6.34;81.68
21838;BME280;11081;45.946;6.140;2023-02-20T03:42:38;96196.25;;;6.32;82.13
21838;BME280;11081;45.946;6.140;2023-02-20T03:45:31;96199.81;;;6.31;83.06
21838;BME280;11081;45.946;6.140;2023-02-20T03:48:07;96194.97;;;6.28;82.42
21838;BME280;11081;45.946;6.140;2023-02-20T03:50:38;96204.38;;;6.29;82.46
21838;BME280;11081;45.946;6.140;2023-02-20T03:53:06;96198.84;;;6.32;82.83
21838;BME280;11081;45.946;6.140;2023-02-20T03:55:35;96208.25;;;6.33;82.53
21838;BME280;11081;45.946;6.140;2023-02-20T03:58:09;96207.91;;;6.36;83.12
21838;BME280;11081;45.946;6.140;2023-02-20T04:00:41;96203.97;;;6.40;82.55
21838;BME280;11081;45.946;6.140;2023-02-20T04:03:15;96202.38;;;6.39;82.47
21838;BME280;11081;45.946;6.140;2023-02-20T04:05:50;96196.72;;;6.35;83.19
21838;BME280;11081;45.946;6.140;2023-02-20T04:08:28;96195.63;;;6.30;83.52
21838;BME280;11081;45.946;6.140;2023-02-20T04:11:06;96194.97;;;6.28;83.13
21838;BME280;11081;45.946;6.140;2023-02-20T04:13:37;96183.81;;;6.27;82.88
21838;BME280;11081;45.946;6.140;2023-02-20T04:16:06;96186.56;;;6.26;83.83
21838;BME280;11081;45.946;6.140;2023-02-20T04:18:36;96179.44;;;6.28;83.87
21838;BME280;11081;45.946;6.140;2023-02-20T04:21:07;96175.84;;;6.29;83.31
21838;BME280;11081;45.946;6.140;2023-02-20T04:23:42;96175.47;;;6.40;82.77
21838;BME280;11081;45.946;6.140;2023-02-20T04:26:16;96170.84;;;6.58;82.24
21838;BME280;11081;45.946;6.140;2023-02-20T04:28:46;96170.41;;;6.78;82.01
21838;BME280;11081;45.946;6.140;2023-02-20T04:31:16;96174.56;;;6.87;81.57
21838;BME280;11081;45.946;6.140;2023-02-20T04:33:47;96173.56;;;6.96;80.90
21838;BME280;11081;45.946;6.140;2023-02-20T04:36:21;96179.91;;;6.93;81.01
21838;BME280;11081;45.946;6.140;2023-02-20T04:38:50;96175.22;;;6.89;81.30
21838;BME280;11081;45.946;6.140;2023-02-20T04:41:24;96180.06;;;6.92;81.34
21838;BME280;11081;45.946;6.140;2023-02-20T04:43:53;96183.00;;;6.89;81.42
21838;BME280;11081;45.946;6.140;2023-02-20T04:46:43;96186.28;;;6.83;81.24
21838;BME280;11081;45.946;6.140;2023-02-20T04:49:12;96193.72;;;6.86;80.89
21838;BME280;11081;45.946;6.140;2023-02-20T04:51:44;96192.09;;;6.85;81.10
21838;BME280;11081;45.946;6.140;2023-02-20T04:54:13;96186.44;;;6.81;81.39
21838;BME280;11081;45.946;6.140;2023-02-20T04:56:42;96184.72;;;6.73;80.14
21838;BME280;11081;45.946;6.140;2023-02-20T04:59:11;96177.44;;;6.38;79.58
21838;BME280;11081;45.946;6.140;2023-02-20T05:01:39;96190.44;;;6.30;79.15
21838;BME280;11081;45.946;6.140;2023-02-20T05:04:08;96184.97;;;6.17;78.85
21838;BME280;11081;45.946;6.140;2023-02-20T05:06:40;96185.34;;;6.05;78.35
21838;BME280;11081;45.946;6.140;2023-02-20T05:09:08;96195.06;;;5.95;79.09
21838;BME280;11081;45.946;6.140;2023-02-20T05:11:36;96210.25;;;5.82;80.32
21838;BME280;11081;45.946;6.140;2023-02-20T05:14:06;96213.81;;;5.81;80.14
21838;BME280;11081;45.946;6.140;2023-02-20T05:16:36;96208.34;;;5.84;80.38
21838;BME280;11081;45.946;6.140;2023-02-20T05:19:04;96210.28;;;5.90;81.13
21838;BME280;11081;45.946;6.140;2023-02-20T05:21:32;96214.50;;;5.91;81.84
21838;BME280;11081;45.946;6.140;2023-02-20T05:24:18;96210.13;;;5.92;81.27
21838;BME280;11081;45.946;6.140;2023-02-20T05:26:46;96207.38;;;5.93;81.23
21838;BME280;11081;45.946;6.140;2023-02-20T05:29:15;96210.28;;;5.98;81.43
21838;BME280;11081;45.946;6.140;2023-02-20T05:31:43;96207.03;;;5.96;81.60
21838;BME280;11081;45.946;6.140;2023-02-20T05:34:12;96214.50;;;5.91;81.87
21838;BME280;11081;45.946;6.140;2023-02-20T05:36:40;96220.16;;;5.95;82.65
21838;BME280;11081;45.946;6.140;2023-02-20T05:39:08;96217.72;;;5.93;81.93
21838;BME280;11081;45.946;6.140;2023-02-20T05:41:36;96214.16;;;5.94;82.71
21838;BME280;11081;45.946;6.140;2023-02-20T05:44:04;96212.88;;;5.90;82.92
21838;BME280;11081;45.946;6.140;2023-02-20T05:46:38;96205.09;;;5.82;82.36
21838;BME280;11081;45.946;6.140;2023-02-20T05:49:08;96207.03;;;5.88;82.73
21838;BME280;11081;45.946;6.140;2023-02-20T05:51:36;96201.56;;;5.91;82.50
21838;BME280;11081;45.946;6.140;2023-02-20T05:54:04;96199.44;;;5.95;83.34
21838;BME280;11081;45.946;6.140;2023-02-20T05:56:32;96191.81;;;5.93;82.93
21838;BME280;11081;45.946;6.140;2023-02-20T05:59:01;96191.81;;;5.93;83.36
21838;BME280;11081;45.946;6.140;2023-02-20T06:01:30;96183.09;;;5.94;83.31
21838;BME280;11081;45.946;6.140;2023-02-20T06:03:59;96190.53;;;5.89;82.52
21838;BME280;11081;45.946;6.140;2023-02-20T06:06:31;96196.03;;;5.86;83.27
21838;BME280;11081;45.946;6.140;2023-02-20T06:09:00;96192.00;;;5.67;84.45
21838;BME280;11081;45.946;6.140;2023-02-20T06:11:28;96187.31;;;5.55;85.81
21838;BME280;11081;45.946;6.140;2023-02-20T06:13:56;96196.72;;;5.47;86.98
21838;BME280;11081;45.946;6.140;2023-02-20T06:16:26;96185.03;;;5.60;85.87
21838;BME280;11081;45.946;6.140;2023-02-20T06:18:55;96185.38;;;5.73;85.31
21838;BME280;11081;45.946;6.140;2023-02-20T06:21:27;96179.19;;;5.82;85.46
21838;BME280;11081;45.946;6.140;2023-02-20T06:23:55;96171.44;;;5.90;84.13
21838;BME280;11081;45.946;6.140;2023-02-20T06:26:23;96182.91;;;5.88;83.89
21838;BME280;11081;45.946;6.140;2023-02-20T06:28:51;96177.56;;;5.81;83.05
21838;BME280;11081;45.946;6.140;2023-02-20T06:31:21;96183.06;;;5.78;83.83
21838;BME280;11081;45.946;6.140;2023-02-20T06:33:50;96190.22;;;5.76;84.09
21838;BME280;11081;45.946;6.140;2023-02-20T06:36:21;96182.13;;;5.71;83.79
21838;BME280;11081;45.946;6.140;2023-02-20T06:38:51;96182.13;;;5.71;84.51
21838;BME280;11081;45.946;6.140;2023-02-20T06:41:23;96171.44;;;5.74;84.64
21838;BME280;11081;45.946;6.140;2023-02-20T06:43:52;96181.47;;;5.77;84.51
21838;BME280;11081;45.946;6.140;2023-02-20T06:46:20;96188.25;;;5.78;84.25
21838;BME280;11081;45.946;6.140;2023-02-20T06:48:50;96194.09;;;5.88;84.00
21838;BME280;11081;45.946;6.140;2023-02-20T06:51:21;96193.78;;;5.91;83.94
21838;BME280;11081;45.946;6.140;2023-02-20T06:53:51;96194.88;;;5.89;84.20
21838;BME280;11081;45.946;6.140;2023-02-20T06:56:22;96192.13;;;5.82;83.84
21838;BME280;11081;45.946;6.140;2023-02-20T06:58:51;96197.66;;;5.79;83.72
21838;BME280;11081;45.946;6.140;2023-02-20T07:01:22;96187.44;;;5.77;84.00
21838;BME280;11081;45.946;6.140;2023-02-20T07:03:53;96187.94;;;5.81;84.03
21838;BME280;11081;45.946;6.140;2023-02-20T07:06:22;96189.53;;;5.82;83.74
21838;BME280;11081;45.946;6.140;2023-02-20T07:08:51;96180.66;;;5.76;83.61
21838;BME280;11081;45.946;6.140;2023-02-20T07:11:21;96186.94;;;5.82;81.66
21838;BME280;11081;45.946;6.140;2023-02-20T07:13:50;96185.66;;;5.86;81.86
21838;BME280;11081;45.946;6.140;2023-02-20T07:16:18;96184.53;;;5.80;81.72
21838;BME280;11081;45.946;6.140;2023-02-20T07:18:46;96189.88;;;5.79;81.16
21838;BME280;11081;45.946;6.140;2023-02-20T07:21:14;96190.22;;;5.92;81.47
21838;BME280;11081;45.946;6.140;2023-02-20T07:23:43;96188.91;;;6.04;81.57
21838;BME280;11081;45.946;6.140;2023-02-20T07:26:18;96189.50;;;6.15;80.58
21838;BME280;11081;45.946;6.140;2023-02-20T07:28:46;96184.94;;;6.25;80.97
21838;BME280;11081;45.946;6.140;2023-02-20T07:31:14;96183.94;;;6.34;80.31
21838;BME280;11081;45.946;6.140;2023-02-20T07:33:42;96191.94;;;6.55;79.77
21838;BME280;11081;45.946;6.140;2023-02-20T07:36:12;96190.28;;;6.62;79.56
21838;BME280;11081;45.946;6.140;2023-02-20T07:38:41;96192.22;;;6.68;79.51
21838;BME280;11081;45.946;6.140;2023-02-20T07:41:09;96187.94;;;6.76;78.49
21838;BME280;11081;45.946;6.140;2023-02-20T07:43:38;96188.75;;;6.76;79.39
21838;BME280;11081;45.946;6.140;2023-02-20T07:46:06;96183.44;;;6.69;79.91
21838;BME280;11081;45.946;6.140;2023-02-20T07:48:34;96184.72;;;6.73;79.80
21838;BME280;11081;45.946;6.140;2023-02-20T07:51:03;96182.06;;;6.82;79.75
21838;BME280;11081;45.946;6.140;2023-02-20T07:53:31;96178.03;;;6.79;79.81
21838;BME280;11081;45.946;6.140;2023-02-20T07:55:59;96187.03;;;6.91;80.29
21838;BME280;11081;45.946;6.140;2023-02-20T07:58:27;96181.63;;;7.01;79.07
21838;BME280;11081;45.946;6.140;2023-02-20T08:00:56;96182.22;;;7.11;78.51
21838;BME280;11081;45.946;6.140;2023-02-20T08:03:24;96184.19;;;7.09;79.05
21838;BME280;11081;45.946;6.140;2023-02-20T08:05:52;96178.03;;;7.02;79.02
21838;BME280;11081;45.946;6.140;2023-02-20T08:08:20;96180.19;;;6.98;79.24
21838;BME280;11081;45.946;6.140;2023-02-20T08:10:50;96183.59;;;6.99;79.30
21838;BME280;11081;45.946;6.140;2023-02-20T08:13:33;96174.47;;;7.03;78.98
21838;BME280;11081;45.946;6.140;2023-02-20T08:16:03;96179.00;;;7.09;78.91
21838;BME280;11081;45.946;6.140;2023-02-20T08:18:31;96174.34;;;7.19;78.66
21838;BME280;11081;45.946;6.140;2023-02-20T08:20:59;96167.78;;;7.31;78.52
21838;BME280;11081;45.946;6.140;2023-02-20T08:23:27;96165.13;;;7.40;78.12
21838;BME280;11081;45.946;6.140;2023-02-20T08:25:55;96163.25;;;7.48;77.93
21838;BME280;11081;45.946;6.140;2023-02-20T08:28:23;96168.19;;;7.58;78.19
21838;BME280;11081;45.946;6.140;2023-02-20T08:30:51;96168.66;;;7.61;78.54
21838;BME280;11081;45.946;6.140;2023-02-20T08:33:21;96171.44;;;7.60;78.87
21838;BME280;11081;45.946;6.140;2023-02-20T08:35:49;96161.03;;;7.60;79.30
21838;BME280;11081;45.946;6.140;2023-02-20T08:38:26;96162.88;;;7.74;79.18
21838;BME280;11081;45.946;6.140;2023-02-20T08:40:54;96168.59;;;7.84;78.67
21838;BME280;11081;45.946;6.140;2023-02-20T08:43:22;96167.88;;;7.90;77.88
21838;BME280;11081;45.946;6.140;2023-02-20T08:45:54;96172.38;;;7.97;78.09
21838;BME280;11081;45.946;6.140;2023-02-20T08:48:23;96172.28;;;8.05;77.18
21838;BME280;11081;45.946;6.140;2023-02-20T08:50:51;96169.31;;;8.08;77.02
21838;BME280;11081;45.946;6.140;2023-02-20T08:53:20;96167.34;;;8.10;76.74
21838;BME280;11081;45.946;6.140;2023-02-20T08:55:49;96162.50;;;8.07;77.30
21838;BME280;11081;45.946;6.140;2023-02-20T08:58:18;96160.53;;;8.09;77.40
21838;BME280;11081;45.946;6.140;2023-02-20T09:00:47;96158.03;;;8.01;77.26
21838;BME280;11081;45.946;6.140;2023-02-20T09:03:15;96157.47;;;7.90;78.25
21838;BME280;11081;45.946;6.140;2023-02-20T09:05:45;96152.75;;;7.94;78.60
21838;BME280;11081;45.946;6.140;2023-02-20T09:08:13;96153.72;;;8.08;77.73
21838;BME280;11081;45.946;6.140;2023-02-20T09:10:41;96158.75;;;8.24;77.56
21838;BME280;11081;45.946;6.140;2023-02-20T09:13:10;96156.41;;;8.29;77.13
21838;BME280;11081;45.946;6.140;2023-02-20T09:15:38;96153.38;;;8.40;76.37
21838;BME280;11081;45.946;6.140;2023-02-20T09:18:07;96154.63;;;8.44;76.81
21838;BME280;11081;45.946;6.140;2023-02-20T09:20:37;96156.22;;;8.45;77.08
21838;BME280;11081;45.946;6.140;2023-02-20T09:23:07;96153.50;;;8.53;76.45
21838;BME280;11081;45.946;6.140;2023-02-20T09:25:35;96150.81;;;8.32;77.59
21838;BME280;11081;45.946;6.140;2023-02-20T09:28:04;96147.47;;;8.17;78.12
21838;BME280;11081;45.946;6.140;2023-02-20T09:30:32;96146.53;;;8.10;78.87
21838;BME280;11081;45.946;6.140;2023-02-20T09:33:00;96144.41;;;7.99;79.98
21838;BME280;11081;45.946;6.140;2023-02-20T09:35:29;96147.88;;;7.91;80.49
21838;BME280;11081;45.946;6.140;2023-02-20T09:37:57;96136.69;;;7.90;81.59
21838;BME280;11081;45.946;6.140;2023-02-20T09:40:29;96145.91;;;8.08;80.11
21838;BME280;11081;45.946;6.140;2023-02-20T09:43:11;96135.16;;;8.25;79.68
21838;BME280;11081;45.946;6.140;2023-02-20T09:45:47;96136.88;;;8.33;79.08
21838;BME280;11081;45.946;6.140;2023-02-20T09:48:33;96138.50;;;8.34;81.25
21838;BME280;11081;45.946;6.140;2023-02-20T09:51:04;96145.19;;;8.58;79.62
21838;BME280;11081;45.946;6.140;2023-02-20T09:53:38;96145.84;;;8.81;77.83
21838;BME280;11081;45.946;6.140;2023-02-20T09:56:13;96146.94;;;8.94;77.23
21838;BME280;11081;45.946;6.140;2023-02-20T09:58:47;96139.59;;;8.97;76.91
21838;BME280;11081;45.946;6.140;2023-02-20T10:01:20;96141.06;;;9.06;77.25
21838;BME280;11081;45.946;6.140;2023-02-20T10:03:54;96142.19;;;9.19;76.01
21838;BME280;11081;45.946;6.140;2023-02-20T10:06:25;96140.22;;;9.21;75.89
21838;BME280;11081;45.946;6.140;2023-02-20T10:08:54;96135.47;;;9.31;75.46
21838;BME280;11081;45.946;6.140;2023-02-20T10:11:41;96136.78;;;9.41;74.29
21838;BME280;11081;45.946;6.140;2023-02-20T10:14:36;96131.03;;;9.25;75.33
21838;BME280;11081;45.946;6.140;2023-02-20T10:17:22;96133.47;;;9.33;75.71
21838;BME280;11081;45.946;6.140;2023-02-20T10:20:02;96119.84;;;9.31;75.29
21838;BME280;11081;45.946;6.140;2023-02-20T10:22:33;96126.00;;;9.51;75.10
21838;BME280;11081;45.946;6.140;2023-02-20T10:25:08;96119.69;;;9.60;74.85
21838;BME280;11081;45.946;6.140;2023-02-20T10:27:47;96120.13;;;9.70;75.02
21838;BME280;11081;45.946;6.140;2023-02-20T10:30:23;96110.56;;;9.77;73.57
21838;BME280;11081;45.946;6.140;2023-02-20T10:32:55;96107.34;;;9.75;74.50
21838;BME280;11081;45.946;6.140;2023-02-20T10:35:25;96114.63;;;9.87;74.21
21838;BME280;11081;45.946;6.140;2023-02-20T10:38:02;96108.25;;;9.96;73.67
21838;BME280;11081;45.946;6.140;2023-02-20T10:40:36;96113.47;;;9.96;73.68
21838;BME280;11081;45.946;6.140;2023-02-20T10:43:13;96106.91;;;10.00;73.18
21838;BME280;11081;45.946;6.140;2023-02-20T10:45:50;96100.31;;;10.11;72.09
21838;BME280;11081;45.946;6.140;2023-02-20T10:48:21;96100.34;;;10.17;73.14
21838;BME280;11081;45.946;6.140;2023-02-20T10:50:54;96104.81;;;10.23;72.70
21838;BME280;11081;45.946;6.140;2023-02-20T10:53:31;96107.66;;;10.28;72.50
21838;BME280;11081;45.946;6.140;2023-02-20T10:56:04;96100.03;;;10.27;72.19
21838;BME280;11081;45.946;6.140;2023-02-20T10:58:38;96094.00;;;10.26;72.54
21838;BME280;11081;45.946;6.140;2023-02-20T11:01:10;96092.78;;;10.22;73.47
21838;BME280;11081;45.946;6.140;2023-02-20T11:03:44;96095.00;;;10.25;74.47
21838;BME280;11081;45.946;6.140;2023-02-20T11:06:16;96086.56;;;10.30;73.64
21838;BME280;11081;45.946;6.140;2023-02-20T11:08:46;96086.03;;;10.41;74.17
21838;BME280;11081;45.946;6.140;2023-02-20T11:11:24;96088.84;;;10.53;71.83
21838;BME280;11081;45.946;6.140;2023-02-20T11:13:57;96086.09;;;10.67;71.03
21838;BME280;11081;45.946;6.140;2023-02-20T11:16:29;96082.09;;;10.78;71.60
21838;BME280;11081;45.946;6.140;2023-02-20T11:19:07;96074.09;;;10.86;70.88
21838;BME280;11081;45.946;6.140;2023-02-20T11:21:37;96079.31;;;10.99;70.85
21838;BME280;11081;45.946;6.140;2023-02-20T11:24:27;96078.13;;;11.09;70.58
21838;BME280;11081;45.946;6.140;2023-02-20T11:27:05;96066.06;;;11.08;71.10
21838;BME280;11081;45.946;6.140;2023-02-20T11:29:39;96064.44;;;11.20;71.04
21838;BME280;11081;45.946;6.140;2023-02-20T11:32:35;96063.25;;;11.29;68.99
21838;BME280;11081;45.946;6.140;2023-02-20T11:35:13;96064.84;;;11.37;69.76
21838;BME280;11081;45.946;6.140;2023-02-20T11:37:42;96062.03;;;11.38;69.12
21838;BME280;11081;45.946;6.140;2023-02-20T11:40:26;96047.97;;;11.46;68.28
21838;BME280;11081;45.946;6.140;2023-02-20T11:42:55;96039.69;;;11.42;68.50
21838;BME280;11081;45.946;6.140;2023-02-20T11:45:25;96028.63;;;11.53;68.02
21838;BME280;11081;45.946;6.140;2023-02-20T11:48:09;96029.41;;;11.67;67.38
21838;BME280;11081;45.946;6.140;2023-02-20T11:50:39;96025.75;;;11.81;67.49
21838;BME280;11081;45.946;6.140;2023-02-20T11:53:18;96024.53;;;11.84;67.77
21838;BME280;11081;45.946;6.140;2023-02-20T11:55:47;96027.13;;;11.97;67.03
21838;BME280;11081;45.946;6.140;2023-02-20T11:58:26;96017.25;;;11.99;66.82
21838;BME280;11081;45.946;6.140;2023-02-20T12:00:56;96016.66;;;11.97;66.80
21838;BME280;11081;45.946;6.140;2023-02-20T12:03:25;96010.38;;;12.11;66.86
21838;BME280;11081;45.946;6.140;2023-02-20T12:05:55;96011.56;;;12.15;66.51
21838;BME280;11081;45.946;6.140;2023-02-20T12:08:35;96001.94;;;12.09;66.83
21838;BME280;11081;45.946;6.140;2023-02-20T12:11:08;96005.06;;;12.25;67.17
21838;BME280;11081;45.946;6.140;2023-02-20T12:13:41;96002.41;;;12.31;66.29
21838;BME280;11081;45.946;6.140;2023-02-20T12:16:31;95991.47;;;12.41;64.83
21838;BME280;11081;45.946;6.140;2023-02-20T12:19:10;95999.06;;;12.49;64.74
21838;BME280;11081;45.946;6.140;2023-02-20T12:21:51;95999.16;;;12.36;64.89
21838;BME280;11081;45.946;6.140;2023-02-20T12:24:35;95992.91;;;12.37;64.54
21838;BME280;11081;45.946;6.140;2023-02-20T12:27:27;95990.94;;;12.26;63.91
21838;BME280;11081;45.946;6.140;2023-02-20T12:30:05;95989.72;;;12.35;65.16
21838;BME280;11081;45.946;6.140;2023-02-20T12:32:49;95982.75;;;12.54;64.19
21838;BME280;11081;45.946;6.140;2023-02-20T12:35:28;95977.03;;;12.63;64.23
21838;BME280;11081;45.946;6.140;2023-02-20T12:38:20;95978.53;;;12.77;62.48
21838;BME280;11081;45.946;6.140;2023-02-20T12:41:11;95969.97;;;12.89;62.46
21838;BME280;11081;45.946;6.140;2023-02-20T12:43:49;95973.94;;;12.98;63.00
21838;BME280;11081;45.946;6.140;2023-02-20T12:46:44;95963.63;;;13.03;62.77
21838;BME280;11081;45.946;6.140;2023-02-20T12:49:45;95967.84;;;13.04;60.65
21838;BME280;11081;45.946;6.140;2023-02-20T12:52:31;95962.13;;;12.89;61.44
21838;BME280;11081;45.946;6.140;2023-02-20T12:55:11;95956.19;;;13.00;62.15
21838;BME280;11081;45.946;6.140;2023-02-20T12:57:52;95947.59;;;13.11;61.41
21838;BME280;11081;45.946;6.140;2023-02-20T13:00:31;95950.22;;;13.18;61.03
21838;BME280;11081;45.946;6.140;2023-02-20T13:03:07;95942.38;;;13.11;60.68
21838;BME280;11081;45.946;6.140;2023-02-20T13:05:41;95935.69;;;13.15;60.82
21838;BME280;11081;45.946;6.140;2023-02-20T13:08:13;95929.38;;;13.23;61.33
21838;BME280;11081;45.946;6.140;2023-02-20T13:10:48;95923.63;;;13.32;60.81
21838;BME280;11081;45.946;6.140;2023-02-20T13:13:19;95919.94;;;13.40;60.75
21838;BME280;11081;45.946;6.140;2023-02-20T13:15:53;95918.09;;;13.40;60.35
21838;BME280;11081;45.946;6.140;2023-02-20T13:18:28;95918.38;;;13.32;60.68
21838;BME280;11081;45.946;6.140;2023-02-20T13:21:02;95915.50;;;13.40;59.67
21838;BME280;11081;45.946;6.140;2023-02-20T13:23:33;95908.78;;;13.45;59.51
21838;BME280;11081;45.946;6.140;2023-02-20T13:26:02;95901.72;;;13.45;60.28
21838;BME280;11081;45.946;6.140;2023-02-20T13:28:39;95909.34;;;13.47;58.65
21838;BME280;11081;45.946;6.140;2023-02-20T13:31:19;95905.44;;;13.56;59.46
21838;BME280;11081;45.946;6.140;2023-02-20T13:33:50;95904.84;;;13.54;59.27
21838;BME280;11081;45.946;6.140;2023-02-20T13:36:38;95899.16;;;13.57;59.18
21838;BME280;11081;45.946;6.140;2023-02-20T13:39:35;95898.53;;;13.73;56.78
21838;BME280;11081;45.946;6.140;2023-02-20T13:42:24;95892.56;;;13.84;57.09
21838;BME280;11081;45.946;6.140;2023-02-20T13:44:52;95899.09;;;13.93;57.95
21838;BME280;11081;45.946;6.140;2023-02-20T13:47:36;95892.22;;;13.92;56.68